Hauptseite
METAR-TAF:

METAR-TAF

Flughäfen :

Flughafen Dortmund

Dortmund, Deutschland

Breite: 51-31N, Länge: 007-37E, Höhe: 127 m

Beobachtung

Neuester Wetterbericht von vor 18 Minuten, um 00:20 UTC
Wind 4 kt aus Nordost
Temperatur 12°C
Luftfeuchtigkeit 58%
Luftdruck 1023 hPa
Sichtweite 10 km oder mehr

METAR: EDLW 310020Z AUTO 05004KT 9999 // NCD 12/04 Q1023

Zeit: 02:38 (00:38 UTC)

Prognose

Neuester Wetterbericht von vor 13 Stunden und 38 Minuten, um 11:00 UTC
Gültige Prognose vom 30 um 12 UTC bis 31 um 12 UTC
Wind 10 kt aus Ost/Nordost
Sichtweite 10 km oder mehr
keine Wolken unter 1500 m und keine Kumulonimbus oder Gewitterwolken
Übergehend zu
vom 30 um 18 UTC bis 30 um 21 UTC
Wind 3 kt aus Ost/Nordost
Übergehend zu
vom 31 um 06 UTC bis 31 um 09 UTC
Wind 10 kt aus Ost/Nordost

TAF: EDLW 301100Z 3012/3112 07010KT CAVOK BECMG 3018/3021 06003KT BECMG 3106/3109 06010KT

Wetterbeobachtungen und Prognosen von mehr als 4000 Flughäfen (METAR und TAF Bericht).

Die verfügbaren Stationen werden durch gelbe und rote Markierungen auf der Karte dargestellt.

Führen Sie die Maus auf sie, um den Namen der Station zu sehen.

Darauf klicken, um die Beobachtung von Wetterbeobachtungen und Prognosen zu sehen.

Um die Karte zu ändern : klicken Sie auf den grünen Tasten mit einem schwarzen Kreuz Zum Vergrößern, auf den grünen Button mit einem Gedankenstrich zu verkleinern, oder auf die grünen Pfeile für benachbarte Karten.


METAR-TAF: